Time;durP1;ratioP1;P1;durP2;ratioP2;P2;SDS_P1;SDS_P2;PMS_P1;PMS_P2;Temp;Humidity;BMP_temperature;BMP_pressure;BME280_temperature;BME280_humidity;BME280_pressure;Samples;Min_cycle;Max_cycle;Signal;HPM_P1;HPM_P2
2023/09/14 00:00:18;;;;;;;1999.90;999.90;;;13.50;99.90;;;;;;5048091;28;20437;-75
2023/09/14 00:02:44;;;;;;;1999.90;999.90;;;13.50;99.90;;;;;;5048797;28;21029;-74
2023/09/14 00:05:12;;;;;;;1999.90;999.90;;;13.60;99.90;;;;;;5048159;28;20946;-76
2023/09/14 00:07:39;;;;;;;1999.90;999.90;;;13.60;99.90;;;;;;5048579;28;20433;-74
2023/09/14 00:10:06;;;;;;;1999.90;999.90;;;13.50;99.90;;;;;;5047022;28;20941;-74
2023/09/14 00:12:33;;;;;;;1999.90;999.90;;;13.60;99.90;;;;;;5044929;28;20437;-74
2023/09/14 00:15:02;;;;;;;1999.90;999.90;;;13.60;99.90;;;;;;5043104;28;20443;-75
2023/09/14 00:17:28;;;;;;;1999.90;999.90;;;13.50;99.90;;;;;;5048968;28;20498;-75
2023/09/14 00:19:55;;;;;;;1999.90;999.90;;;13.50;99.90;;;;;;5047805;28;20437;-74
2023/09/14 00:22:22;;;;;;;1999.90;999.90;;;13.80;99.90;;;;;;5047614;28;20441;-75
2023/09/14 00:24:48;;;;;;;1999.90;999.90;;;13.40;99.90;;;;;;5047669;28;20436;-74
2023/09/14 00:27:15;;;;;;;1999.90;999.90;;;13.30;99.90;;;;;;5040471;28;20446;-74
2023/09/14 00:29:42;;;;;;;1999.90;999.90;;;13.40;99.90;;;;;;5046429;28;20432;-73
2023/09/14 00:32:10;;;;;;;1999.90;999.90;;;13.40;99.90;;;;;;5046105;28;20440;-74
2023/09/14 00:34:36;;;;;;;1999.90;999.90;;;13.30;99.90;;;;;;5045890;28;20417;-73
2023/09/14 00:37:04;;;;;;;1999.90;999.90;;;13.30;99.90;;;;;;5043570;28;20417;-77
2023/09/14 00:39:31;;;;;;;1999.90;999.90;;;13.30;99.90;;;;;;5049105;28;20543;-76
2023/09/14 00:41:58;;;;;;;1999.90;999.90;;;13.30;99.90;;;;;;5048578;28;21182;-76
2023/09/14 00:44:24;;;;;;;1999.90;999.90;;;13.30;99.90;;;;;;5041441;28;20419;-76
2023/09/14 00:46:51;;;;;;;1999.90;999.90;;;13.40;99.90;;;;;;5042232;28;20424;-76
2023/09/14 00:49:19;;;;;;;1999.90;999.90;;;13.10;99.90;;;;;;5039254;28;20427;-77
2023/09/14 00:51:46;;;;;;;1999.90;999.90;;;13.10;99.90;;;;;;5041837;28;20405;-77
2023/09/14 00:54:13;;;;;;;1999.90;999.90;;;13.10;99.90;;;;;;5045380;28;20437;-76
2023/09/14 00:56:40;;;;;;;1999.90;999.90;;;13.10;99.90;;;;;;5040214;28;20421;-76
2023/09/14 00:59:07;;;;;;;1999.90;999.90;;;13.10;99.90;;;;;;5041348;28;20409;-76
2023/09/14 01:01:34;;;;;;;1999.90;999.90;;;13.10;99.90;;;;;;5044062;28;20456;-75
2023/09/14 01:04:01;;;;;;;1999.90;999.90;;;13.10;99.90;;;;;;5048512;28;20800;-76
2023/09/14 01:06:32;;;;;;;1999.90;999.90;;;13.10;99.90;;;;;;5048333;28;20437;-77
2023/09/14 01:08:59;;;;;;;1999.90;999.90;;;13.10;99.90;;;;;;5046819;28;20451;-75
2023/09/14 01:11:25;;;;;;;1999.90;999.90;;;13.00;99.90;;;;;;5046664;28;20472;-76
2023/09/14 01:14:04;;;;;;;1999.90;999.90;;;13.00;99.90;;;;;;5048113;28;20434;-75
2023/09/14 01:16:34;;;;;;;1999.90;999.90;;;13.00;99.90;;;;;;5047078;28;20520;-76
2023/09/14 01:19:10;;;;;;;1999.90;999.90;;;13.00;99.90;;;;;;5047424;28;20433;-76
2023/09/14 01:22:11;;;;;;;1999.90;999.90;;;13.00;99.90;;;;;;5047043;28;20424;-76
2023/09/14 01:24:46;;;;;;;1999.90;999.90;;;13.00;99.90;;;;;;5047523;28;20467;-75
2023/09/14 01:27:14;;;;;;;1999.90;999.90;;;13.00;99.90;;;;;;5047167;28;20520;-76
2023/09/14 01:29:41;;;;;;;1999.90;999.90;;;13.00;99.90;;;;;;5045388;28;20437;-76
2023/09/14 01:32:08;;;;;;;1999.90;999.90;;;13.00;99.90;;;;;;5047037;28;20436;-76
2023/09/14 01:34:34;;;;;;;1999.90;999.90;;;12.90;99.90;;;;;;5047530;28;20441;-76
2023/09/14 01:37:05;;;;;;;1999.90;999.90;;;12.90;99.90;;;;;;5045931;28;20437;-77
2023/09/14 01:39:34;;;;;;;1999.90;999.90;;;12.90;99.90;;;;;;5047824;28;20437;-76
2023/09/14 01:42:02;;;;;;;1999.90;999.90;;;13.00;99.90;;;;;;5047163;28;20440;-76
2023/09/14 01:44:31;;;;;;;1999.90;999.90;;;13.00;99.90;;;;;;5047898;28;20438;-76
2023/09/14 01:46:58;;;;;;;1999.90;999.90;;;13.00;99.90;;;;;;5044430;28;20441;-76
2023/09/14 01:49:24;;;;;;;1999.90;999.90;;;12.90;99.90;;;;;;5045907;28;20815;-74
2023/09/14 01:51:52;;;;;;;1999.90;999.90;;;12.90;99.90;;;;;;5047336;28;20436;-77
2023/09/14 01:54:18;;;;;;;1999.90;999.90;;;12.80;99.90;;;;;;5047774;28;20428;-76
2023/09/14 01:56:46;;;;;;;1999.90;999.90;;;12.80;99.90;;;;;;5047922;28;20437;-74
2023/09/14 01:59:12;;;;;;;1999.90;999.90;;;12.80;99.90;;;;;;5049434;28;20437;-76
2023/09/14 02:01:41;;;;;;;1999.90;999.90;;;12.90;99.90;;;;;;5045271;28;20440;-76
2023/09/14 02:04:07;;;;;;;1999.90;999.90;;;12.80;99.90;;;;;;5051110;28;20819;-75
2023/09/14 02:06:34;;;;;;;1999.90;999.90;;;12.90;99.90;;;;;;5051195;28;20923;-76
2023/09/14 02:09:01;;;;;;;1999.90;999.90;;;12.80;99.90;;;;;;5051225;28;20433;-77
2023/09/14 02:11:27;;;;;;;1999.90;999.90;;;12.80;99.90;;;;;;5049496;28;20429;-75
2023/09/14 02:13:54;;;;;;;1999.90;999.90;;;12.80;99.90;;;;;;5044117;28;20429;-76
2023/09/14 02:16:21;;;;;;;1999.90;999.90;;;12.90;99.90;;;;;;5044374;28;20818;-77
2023/09/14 02:18:49;;;;;;;1999.90;999.90;;;12.70;99.90;;;;;;5047222;28;20460;-77
2023/09/14 02:21:16;;;;;;;1999.90;999.90;;;12.70;99.90;;;;;;5048704;28;20437;-76
2023/09/14 02:23:43;;;;;;;1999.90;999.90;;;12.70;99.90;;;;;;5050450;28;20510;-75
2023/09/14 02:26:10;;;;;;;1999.90;999.90;;;12.70;99.90;;;;;;5050026;28;20433;-76
2023/09/14 02:28:36;;;;;;;1999.90;999.90;;;12.80;99.90;;;;;;5046878;28;20437;-76
2023/09/14 02:31:07;;;;;;;1999.90;999.90;;;12.80;99.90;;;;;;5049009;28;20430;-75
2023/09/14 02:33:33;;;;;;;1999.90;999.90;;;12.70;99.90;;;;;;5050073;28;20458;-76
2023/09/14 02:36:01;;;;;;;1999.90;999.90;;;12.70;99.90;;;;;;5048603;28;20830;-77
2023/09/14 02:38:28;;;;;;;1999.90;999.90;;;12.70;99.90;;;;;;5048805;28;20510;-75
2023/09/14 02:40:55;;;;;;;1999.90;999.90;;;12.50;99.90;;;;;;5048811;28;20429;-76
2023/09/14 02:43:21;;;;;;;1999.90;999.90;;;12.50;99.90;;;;;;5051404;28;20421;-75
2023/09/14 02:45:48;;;;;;;1999.90;999.90;;;12.60;99.90;;;;;;5048749;28;20417;-75
2023/09/14 02:48:15;;;;;;;1999.90;999.90;;;12.60;99.90;;;;;;5047347;28;20417;-75
2023/09/14 02:50:43;;;;;;;1999.90;999.90;;;12.60;99.90;;;;;;5043751;28;20416;-75
2023/09/14 02:53:11;;;;;;;1999.90;999.90;;;12.50;99.90;;;;;;5048274;28;20416;-76
2023/09/14 02:55:39;;;;;;;1999.90;999.90;;;12.50;99.90;;;;;;5049089;28;20965;-75
2023/09/14 02:58:08;;;;;;;1999.90;999.90;;;12.50;99.90;;;;;;5051705;28;20475;-76
2023/09/14 03:00:37;;;;;;;1999.90;999.90;;;12.40;99.90;;;;;;5048104;28;20442;-76
2023/09/14 03:03:05;;;;;;;1999.90;999.90;;;12.20;99.90;;;;;;5049288;28;20436;-74
2023/09/14 03:05:31;;;;;;;1999.90;999.90;;;12.20;99.90;;;;;;5048907;28;20437;-76
2023/09/14 03:07:58;;;;;;;1999.90;999.90;;;12.10;99.90;;;;;;5050279;28;20444;-76
2023/09/14 03:10:26;;;;;;;1999.90;999.90;;;12.10;99.90;;;;;;5046059;28;20429;-77
2023/09/14 03:12:53;;;;;;;1999.90;999.90;;;12.20;99.90;;;;;;5047418;28;20433;-75
2023/09/14 03:15:19;;;;;;;1999.90;999.90;;;12.10;99.90;;;;;;5046555;28;20437;-77
2023/09/14 03:17:46;;;;;;;1999.90;999.90;;;12.10;99.90;;;;;;5052356;28;20506;-77
2023/09/14 03:20:13;;;;;;;1999.90;999.90;;;12.20;99.90;;;;;;5053089;28;20459;-75
2023/09/14 03:22:39;;;;;;;1999.90;999.90;;;12.20;99.90;;;;;;5052035;28;20428;-76
2023/09/14 03:25:07;;;;;;;1999.90;999.90;;;12.20;99.90;;;;;;5051357;28;20440;-76
2023/09/14 03:27:38;;;;;;;1999.90;999.90;;;12.20;99.90;;;;;;5047743;28;21225;-75
2023/09/14 03:30:06;;;;;;;1999.90;999.90;;;12.10;99.90;;;;;;5049028;28;20442;-75
2023/09/14 03:32:33;;;;;;;1999.90;999.90;;;12.10;99.90;;;;;;5049467;28;20433;-76
2023/09/14 03:35:00;;;;;;;1999.90;999.90;;;12.00;99.90;;;;;;5050211;28;20524;-74
2023/09/14 03:37:26;;;;;;;1999.90;999.90;;;12.00;99.90;;;;;;5047056;28;20437;-75
2023/09/14 03:39:53;;;;;;;1999.90;999.90;;;12.00;99.90;;;;;;5048003;28;20437;-76
2023/09/14 03:42:20;;;;;;;1999.90;999.90;;;12.00;99.90;;;;;;5049118;28;20433;-76
2023/09/14 03:44:48;;;;;;;1999.90;999.90;;;12.00;99.90;;;;;;5049454;28;20429;-76
2023/09/14 03:47:15;;;;;;;1999.90;999.90;;;12.00;99.90;;;;;;5048747;28;20433;-76
2023/09/14 03:49:41;;;;;;;1999.90;999.90;;;11.90;99.90;;;;;;5042128;28;20471;-76
2023/09/14 03:52:08;;;;;;;1999.90;999.90;;;11.90;99.90;;;;;;5046835;28;20520;-75
2023/09/14 03:54:35;;;;;;;1999.90;999.90;;;12.00;99.90;;;;;;5047652;28;20441;-74
2023/09/14 03:57:02;;;;;;;1999.90;999.90;;;12.00;99.90;;;;;;5048687;28;20526;-76
2023/09/14 03:59:29;;;;;;;1999.90;999.90;;;12.40;99.90;;;;;;5048350;28;20861;-76
2023/09/14 04:01:57;;;;;;;1999.90;999.90;;;12.00;99.90;;;;;;5048763;28;20433;-77
2023/09/14 04:04:24;;;;;;;1999.90;999.90;;;11.90;99.90;;;;;;5048167;28;20429;-76
2023/09/14 04:06:51;;;;;;;1999.90;999.90;;;11.90;99.90;;;;;;5046542;28;20437;-76
2023/09/14 04:09:18;;;;;;;1999.90;999.90;;;11.90;99.90;;;;;;5047710;28;21020;-75
2023/09/14 04:11:44;;;;;;;1999.90;999.90;;;11.80;99.90;;;;;;5048764;28;20474;-77
2023/09/14 04:14:11;;;;;;;1999.90;999.90;;;11.80;99.90;;;;;;5048742;28;20441;-75
2023/09/14 04:16:38;;;;;;;1999.90;999.90;;;11.80;99.90;;;;;;5048671;28;20947;-76
2023/09/14 04:19:06;;;;;;;1999.90;999.90;;;11.70;99.90;;;;;;5048016;28;20433;-76
2023/09/14 04:21:33;;;;;;;1999.90;999.90;;;11.70;99.90;;;;;;5045591;28;20473;-76
2023/09/14 04:23:59;;;;;;;1999.90;999.90;;;11.60;99.90;;;;;;5047899;28;20433;-76
2023/09/14 04:26:27;;;;;;;1999.90;999.90;;;11.60;99.90;;;;;;5048658;28;20437;-75
2023/09/14 04:28:54;;;;;;;1999.90;999.90;;;11.60;99.90;;;;;;5048730;28;20440;-75
2023/09/14 04:31:21;;;;;;;1999.90;999.90;;;11.50;99.90;;;;;;5047433;28;20437;-74
2023/09/14 04:33:47;;;;;;;1999.90;999.90;;;11.50;99.90;;;;;;5049228;28;20429;-76
2023/09/14 04:36:15;;;;;;;1999.90;999.90;;;11.40;99.90;;;;;;5050050;28;20424;-75
2023/09/14 04:38:42;;;;;;;1999.90;999.90;;;11.50;99.90;;;;;;5042559;28;20421;-76
2023/09/14 04:41:09;;;;;;;1999.90;999.90;;;11.50;99.90;;;;;;5049473;28;21060;-75
2023/09/14 04:43:35;;;;;;;1999.90;999.90;;;11.40;99.90;;;;;;5048924;28;20467;-75
2023/09/14 04:46:04;;;;;;;1999.90;999.90;;;11.40;99.90;;;;;;5049589;28;20424;-76
2023/09/14 04:48:30;;;;;;;1999.90;999.90;;;11.40;99.90;;;;;;5048248;28;20433;-76
2023/09/14 04:50:57;;;;;;;1999.90;999.90;;;11.40;99.90;;;;;;5049089;28;20433;-75
2023/09/14 04:53:26;;;;;;;1999.90;999.90;;;11.50;99.90;;;;;;5049495;28;20492;-77
2023/09/14 04:55:54;;;;;;;1999.90;999.90;;;11.40;99.90;;;;;;5036730;28;20423;-76
2023/09/14 04:58:20;;;;;;;1999.90;999.90;;;11.40;99.90;;;;;;5029956;28;20418;-75
2023/09/14 05:00:48;;;;;;;1999.90;999.90;;;11.40;99.90;;;;;;5034887;28;20419;-75
2023/09/14 05:03:15;;;;;;;1999.90;999.90;;;11.40;99.90;;;;;;5045628;28;20479;-76
2023/09/14 05:05:42;;;;;;;1999.90;999.90;;;11.30;99.90;;;;;;5046662;28;20440;-76
2023/09/14 05:08:09;;;;;;;1999.90;999.90;;;11.30;99.90;;;;;;5048515;28;20428;-75
2023/09/14 05:10:37;;;;;;;1999.90;999.90;;;11.30;99.90;;;;;;5048248;28;20433;-74
2023/09/14 05:13:04;;;;;;;1999.90;999.90;;;11.40;99.90;;;;;;5047143;28;20429;-74
2023/09/14 05:15:31;;;;;;;1999.90;999.90;;;11.40;99.90;;;;;;5047451;28;20500;-76
2023/09/14 05:17:58;;;;;;;1999.90;999.90;;;11.50;99.90;;;;;;5040258;28;20437;-77
2023/09/14 05:20:24;;;;;;;1999.90;999.90;;;11.60;99.90;;;;;;5048299;28;20429;-76
2023/09/14 05:22:51;;;;;;;1999.90;999.90;;;11.60;99.90;;;;;;5047041;28;20429;-74
2023/09/14 05:25:18;;;;;;;1999.90;999.90;;;11.70;99.90;;;;;;5047826;28;20441;-76
2023/09/14 05:27:46;;;;;;;1999.90;999.90;;;11.70;99.90;;;;;;5042845;28;20433;-76
2023/09/14 05:30:13;;;;;;;1999.90;999.90;;;11.70;99.90;;;;;;5045583;28;20429;-75
2023/09/14 05:32:41;;;;;;;1999.90;999.90;;;11.80;99.90;;;;;;5046392;28;21145;-76
2023/09/14 05:35:09;;;;;;;1999.90;999.90;;;12.00;99.90;;;;;;5052465;28;20455;-75
2023/09/14 05:37:36;;;;;;;1999.90;999.90;;;12.10;99.90;;;;;;5051775;28;20814;-76
2023/09/14 05:40:10;;;;;;;1999.90;999.90;;;12.20;99.90;;;;;;5049885;28;20587;-76
2023/09/14 05:42:38;;;;;;;1999.90;999.90;;;12.20;99.90;;;;;;5051509;28;20441;-76
2023/09/14 05:45:08;;;;;;;1999.90;999.90;;;12.30;99.90;;;;;;5051183;28;20460;-77
2023/09/14 05:47:35;;;;;;;1999.90;999.90;;;12.40;99.90;;;;;;5050043;28;20464;-77
2023/09/14 05:50:03;;;;;;;1999.90;999.90;;;12.50;99.90;;;;;;5046419;28;20440;-75
2023/09/14 05:52:30;;;;;;;1999.90;999.90;;;12.50;99.90;;;;;;5051259;28;20437;-75
2023/09/14 05:54:57;;;;;;;1999.90;999.90;;;12.60;99.90;;;;;;5051784;28;20445;-77
2023/09/14 05:57:24;;;;;;;1999.90;999.90;;;12.70;99.90;;;;;;5051047;28;20460;-76
2023/09/14 05:59:50;;;;;;;1999.90;999.90;;;12.80;99.90;;;;;;5049784;28;20845;-76
2023/09/14 06:02:19;;;;;;;1999.90;999.90;;;12.80;99.90;;;;;;5050480;28;21120;-76
2023/09/14 06:04:47;;;;;;;1999.90;999.90;;;12.80;99.90;;;;;;5051307;28;20461;-75
2023/09/14 06:07:13;;;;;;;1999.90;999.90;;;13.00;99.90;;;;;;5050746;28;20429;-76
2023/09/14 06:09:40;;;;;;;1999.90;999.90;;;13.10;99.90;;;;;;5051157;28;20937;-76
2023/09/14 06:12:07;;;;;;;1999.90;999.90;;;13.20;99.90;;;;;;5051080;28;20845;-75
2023/09/14 06:14:34;;;;;;;1999.90;999.90;;;13.40;99.90;;;;;;5048709;28;20498;-76
2023/09/14 06:17:02;;;;;;;1999.90;999.90;;;13.50;99.90;;;;;;5050992;28;20430;-76
2023/09/14 06:19:30;;;;;;;1999.90;999.90;;;13.60;99.90;;;;;;5050346;28;20438;-76
2023/09/14 06:21:57;;;;;;;1999.90;999.90;;;13.80;99.90;;;;;;5050559;28;20440;-77
2023/09/14 06:24:24;;;;;;;1999.90;999.90;;;13.90;99.90;;;;;;5049563;28;20433;-77
2023/09/14 06:26:51;;;;;;;1999.90;999.90;;;13.90;99.90;;;;;;5043265;28;20433;-77
2023/09/14 06:29:17;;;;;;;1999.90;999.90;;;14.00;99.90;;;;;;5047991;28;20460;-76
2023/09/14 06:31:44;;;;;;;1999.90;999.90;;;14.00;99.90;;;;;;5050311;28;20523;-74
2023/09/14 06:34:11;;;;;;;1999.90;999.90;;;14.20;99.90;;;;;;5049959;28;20433;-74
2023/09/14 06:36:39;;;;;;;1999.90;999.90;;;14.40;99.90;;;;;;5048163;28;20429;-72
2023/09/14 06:39:06;;;;;;;1999.90;999.90;;;14.60;99.90;;;;;;5049775;28;20433;-75
2023/09/14 06:41:32;;;;;;;1999.90;999.90;;;14.70;99.90;;;;;;5048051;28;20433;-75
2023/09/14 06:43:59;;;;;;;1999.90;999.90;;;14.70;99.90;;;;;;5049511;28;20953;-75
2023/09/14 06:46:26;;;;;;;1999.90;999.90;;;15.10;99.90;;;;;;5049820;28;20471;-72
2023/09/14 06:48:52;;;;;;;1999.90;999.90;;;15.10;99.90;;;;;;5045671;28;21863;-74
2023/09/14 06:51:19;;;;;;;1999.90;999.90;;;14.90;99.90;;;;;;5038665;28;20461;-72
2023/09/14 06:53:47;;;;;;;1999.90;999.90;;;14.90;99.90;;;;;;5043239;28;20432;-73
2023/09/14 06:56:15;;;;;;;1999.90;999.90;;;15.20;99.90;;;;;;5050438;28;20441;-76
2023/09/14 06:58:41;;;;;;;1999.90;999.90;;;15.60;99.90;;;;;;5048589;28;20799;-76
2023/09/14 07:01:08;;;;;;;1999.90;999.90;;;15.70;99.90;;;;;;5048573;28;20441;-75
2023/09/14 07:03:36;;;;;;;1999.90;999.90;;;15.90;99.90;;;;;;5038957;28;20922;-74
2023/09/14 07:06:02;;;;;;;1999.90;999.90;;;15.90;99.90;;;;;;5044033;28;20440;-75
2023/09/14 07:08:29;;;;;;;1999.90;999.90;;;16.00;99.90;;;;;;5048231;28;20433;-74
2023/09/14 07:10:58;;;;;;;1999.90;999.90;;;16.10;99.90;;;;;;5047674;28;20534;-75
2023/09/14 07:13:25;;;;;;;1999.90;999.90;;;16.20;99.90;;;;;;5045720;28;20441;-76
2023/09/14 07:15:52;;;;;;;1999.90;999.90;;;16.30;99.90;;;;;;5049281;28;20811;-75
2023/09/14 07:18:26;;;;;;;1999.90;999.90;;;16.50;99.90;;;;;;5048999;28;20444;-75
2023/09/14 07:20:53;;;;;;;1999.90;999.90;;;16.50;99.90;;;;;;5047757;28;20456;-75
2023/09/14 07:23:20;;;;;;;1999.90;999.90;;;16.50;99.90;;;;;;5048706;28;20842;-76
2023/09/14 07:25:48;;;;;;;1999.90;999.90;;;16.60;99.90;;;;;;5049249;28;20858;-76
2023/09/14 07:28:16;;;;;;;1999.90;999.90;;;16.50;99.90;;;;;;5048004;28;20433;-75
2023/09/14 07:30:43;;;;;;;1999.90;999.90;;;16.50;99.90;;;;;;5049643;28;20444;-77
2023/09/14 07:33:11;;;;;;;1999.90;999.90;;;16.40;99.90;;;;;;5049411;28;20425;-75
2023/09/14 07:35:39;;;;;;;1999.90;999.90;;;16.30;99.90;;;;;;5043402;28;20433;-76
2023/09/14 07:38:07;;;;;;;1999.90;999.90;;;16.40;99.90;;;;;;5050869;28;20940;-76
2023/09/14 07:40:33;;;;;;;1999.90;999.90;;;16.40;99.90;;;;;;5050930;28;20428;-76
2023/09/14 07:43:00;;;;;;;1999.90;999.90;;;16.50;99.90;;;;;;5050368;28;20478;-78
2023/09/14 07:45:30;;;;;;;1999.90;999.90;;;16.60;99.90;;;;;;5050893;28;20418;-76
2023/09/14 07:47:57;;;;;;;1999.90;999.90;;;16.60;99.90;;;;;;5049089;28;20433;-77
2023/09/14 07:50:23;;;;;;;1999.90;999.90;;;16.80;99.90;;;;;;5050811;28;20444;-74
2023/09/14 07:52:50;;;;;;;1999.90;999.90;;;16.70;99.90;;;;;;5050494;28;20409;-76
2023/09/14 07:55:17;;;;;;;1999.90;999.90;;;16.90;99.90;;;;;;5050639;28;20420;-74
2023/09/14 07:57:43;;;;;;;1999.90;999.90;;;17.00;99.90;;;;;;5050677;28;20421;-75
2023/09/14 08:00:11;;;;;;;1999.90;999.90;;;17.70;99.90;;;;;;5050075;28;20460;-74
2023/09/14 08:02:39;;;;;;;1999.90;999.90;;;17.60;99.90;;;;;;5050298;28;20425;-73
2023/09/14 08:05:06;;;;;;;1999.90;999.90;;;17.80;99.90;;;;;;5049409;28;20413;-76
2023/09/14 08:07:33;;;;;;;1999.90;999.90;;;17.90;99.90;;;;;;5049472;28;20436;-75
2023/09/14 08:09:59;;;;;;;1999.90;999.90;;;18.10;99.90;;;;;;5049638;28;20421;-74
2023/09/14 08:12:26;;;;;;;1999.90;999.90;;;17.90;99.90;;;;;;5050024;28;20503;-75
2023/09/14 08:14:53;;;;;;;1999.90;999.90;;;17.90;99.90;;;;;;5049551;28;20423;-76
2023/09/14 08:17:19;;;;;;;1999.90;999.90;;;17.90;99.90;;;;;;5050551;28;20416;-75
2023/09/14 08:19:47;;;;;;;1999.90;999.90;;;18.00;99.90;;;;;;5050522;28;20413;-75
2023/09/14 08:22:14;;;;;;;1999.90;999.90;;;17.90;99.90;;;;;;5050076;28;20796;-74
2023/09/14 08:24:41;;;;;;;1999.90;999.90;;;18.00;99.90;;;;;;5049986;28;20457;-74
2023/09/14 08:27:08;;;;;;;1999.90;999.90;;;18.30;99.90;;;;;;5049363;28;20433;-76
2023/09/14 08:29:37;;;;;;;1999.90;999.90;;;18.10;99.90;;;;;;5050386;28;20617;-77
2023/09/14 08:32:04;;;;;;;1999.90;999.90;;;17.80;99.90;;;;;;5050138;28;20487;-76
2023/09/14 08:34:30;;;;;;;1999.90;999.90;;;17.70;99.90;;;;;;5050035;28;20878;-77
2023/09/14 08:36:58;;;;;;;1999.90;999.90;;;17.70;99.90;;;;;;5050139;28;20436;-77
2023/09/14 08:39:25;;;;;;;1999.90;999.90;;;17.70;99.90;;;;;;5050530;28;20426;-76
2023/09/14 08:41:52;;;;;;;1999.90;999.90;;;18.00;99.90;;;;;;5049234;28;20432;-78
2023/09/14 08:44:20;;;;;;;1999.90;999.90;;;18.10;99.90;;;;;;5049842;28;20919;-76
2023/09/14 08:46:48;;;;;;;1999.90;999.90;;;17.80;99.90;;;;;;5050239;28;20417;-77
2023/09/14 08:49:19;;;;;;;1999.90;999.90;;;18.10;99.90;;;;;;5050243;28;20418;-75
2023/09/14 08:51:49;;;;;;;1999.90;999.90;;;18.00;99.90;;;;;;5049762;28;20779;-76
2023/09/14 08:54:18;;;;;;;1999.90;999.90;;;17.70;99.90;;;;;;5049088;28;20421;-76
2023/09/14 08:56:46;;;;;;;1999.90;999.90;;;17.90;99.90;;;;;;5046607;28;20473;-74
2023/09/14 08:59:15;;;;;;;1999.90;999.90;;;18.00;99.90;;;;;;5050244;28;20428;-74
2023/09/14 09:01:44;;;;;;;1999.90;999.90;;;18.30;99.90;;;;;;5041891;28;20413;-77
2023/09/14 09:04:11;;;;;;;1999.90;999.90;;;18.50;99.90;;;;;;5049850;28;20425;-75
2023/09/14 09:06:38;;;;;;;1999.90;999.90;;;18.60;99.90;;;;;;5049960;28;20467;-75
2023/09/14 09:09:06;;;;;;;1999.90;999.90;;;18.10;99.90;;;;;;5052124;28;20934;-75
2023/09/14 09:11:35;;;;;;;1999.90;999.90;;;18.20;99.90;;;;;;5052819;28;20425;-74
2023/09/14 09:14:01;;;;;;;1999.90;999.90;;;18.20;99.90;;;;;;5053793;28;20413;-75
2023/09/14 09:16:28;;;;;;;1999.90;999.90;;;18.30;99.90;;;;;;5051398;28;20448;-75
2023/09/14 09:19:02;;;;;;;1999.90;999.90;;;18.40;99.90;;;;;;5047210;28;20421;-74
2023/09/14 09:21:30;;;;;;;1999.90;999.90;;;18.20;99.90;;;;;;5051140;28;20918;-76
2023/09/14 09:23:57;;;;;;;1999.90;999.90;;;18.30;99.90;;;;;;5045498;28;21114;-76
2023/09/14 09:26:25;;;;;;;1999.90;999.90;;;18.30;99.90;;;;;;5051861;28;20429;-73
2023/09/14 09:28:53;;;;;;;1999.90;999.90;;;18.50;99.90;;;;;;5049467;28;20436;-74
2023/09/14 09:31:19;;;;;;;1999.90;999.90;;;18.70;99.90;;;;;;5049839;28;20437;-71
2023/09/14 09:33:48;;;;;;;1999.90;999.90;;;19.10;99.90;;;;;;5050468;28;20425;-76
2023/09/14 09:36:16;;;;;;;1999.90;999.90;;;18.80;99.90;;;;;;5046754;28;20630;-75
2023/09/14 09:38:42;;;;;;;1999.90;999.90;;;18.50;99.90;;;;;;5046375;28;20425;-73
2023/09/14 09:41:11;;;;;;;1999.90;999.90;;;18.30;99.90;;;;;;5051694;28;20421;-73
2023/09/14 09:43:38;;;;;;;1999.90;999.90;;;18.40;99.90;;;;;;5050834;28;20421;-75
2023/09/14 09:46:14;;;;;;;1999.90;999.90;;;18.50;99.90;;;;;;5050384;28;20431;-74
2023/09/14 09:48:42;;;;;;;1999.90;999.90;;;18.70;99.90;;;;;;5045654;28;20425;-73
2023/09/14 09:51:09;;;;;;;1999.90;999.90;;;18.60;99.90;;;;;;5047027;28;20432;-74
2023/09/14 09:53:36;;;;;;;1999.90;999.90;;;18.70;99.90;;;;;;5051371;28;20646;-75
2023/09/14 09:56:03;;;;;;;1999.90;999.90;;;18.70;99.90;;;;;;5046039;28;20429;-73
2023/09/14 09:58:35;;;;;;;1999.90;999.90;;;18.50;99.90;;;;;;5051601;28;21047;-75
2023/09/14 10:01:02;;;;;;;1999.90;999.90;;;18.60;99.90;;;;;;5047347;28;20849;-73
2023/09/14 10:03:31;;;;;;;1999.90;999.90;;;18.60;99.90;;;;;;5050511;28;20514;-73
2023/09/14 10:05:58;;;;;;;1999.90;999.90;;;18.80;99.90;;;;;;5047656;28;20795;-74
2023/09/14 10:08:25;;;;;;;1999.90;999.90;;;19.00;99.90;;;;;;5042066;28;20422;-75
2023/09/14 10:10:52;;;;;;;1999.90;999.90;;;18.80;99.90;;;;;;5048727;28;20493;-74
2023/09/14 10:13:21;;;;;;;1999.90;999.90;;;18.40;99.90;;;;;;5047539;28;20425;-75
2023/09/14 10:15:50;;;;;;;1999.90;999.90;;;18.30;99.90;;;;;;5047391;28;20479;-74
2023/09/14 10:18:17;;;;;;;1999.90;999.90;;;18.20;99.90;;;;;;5041216;28;20461;-73
2023/09/14 10:20:47;;;;;;;1999.90;999.90;;;18.50;99.90;;;;;;5048902;28;20413;-74
2023/09/14 10:23:16;;;;;;;1999.90;999.90;;;18.80;99.90;;;;;;5050445;28;20437;-74
2023/09/14 10:25:46;;;;;;;1999.90;999.90;;;18.70;99.90;;;;;;5049735;28;20941;-73
2023/09/14 10:28:15;;;;;;;1999.90;999.90;;;18.60;99.90;;;;;;5048678;28;21055;-74
2023/09/14 10:30:42;;;;;;;1999.90;999.90;;;18.60;99.90;;;;;;5046384;28;20417;-75
2023/09/14 10:33:11;;;;;;;1999.90;999.90;;;19.00;99.90;;;;;;5050582;28;20898;-74
2023/09/14 10:35:40;;;;;;;1999.90;999.90;;;19.00;99.90;;;;;;5048975;28;20810;-71
2023/09/14 10:38:09;;;;;;;1999.90;999.90;;;18.90;99.90;;;;;;5050266;28;20417;-73
2023/09/14 10:40:37;;;;;;;1999.90;999.90;;;18.80;99.90;;;;;;5048400;28;20878;-73
2023/09/14 10:43:04;;;;;;;1999.90;999.90;;;18.90;99.90;;;;;;5051788;28;20422;-70
2023/09/14 10:45:35;;;;;;;1999.90;999.90;;;19.00;99.90;;;;;;5050532;28;20421;-72
2023/09/14 10:48:03;;;;;;;1999.90;999.90;;;19.10;99.90;;;;;;5050961;28;20452;-69
2023/09/14 10:50:31;;;;;;;1999.90;999.90;;;19.20;99.90;;;;;;5049902;28;20429;-70
2023/09/14 10:52:58;;;;;;;1999.90;999.90;;;19.20;99.90;;;;;;5045051;28;20926;-71
2023/09/14 10:55:26;;;;;;;1999.90;999.90;;;19.10;99.90;;;;;;5048440;28;20441;-69
2023/09/14 10:57:53;;;;;;;1999.90;999.90;;;18.90;99.90;;;;;;5051286;28;20425;-71
2023/09/14 11:00:33;;;;;;;1999.90;999.90;;;18.90;99.90;;;;;;5050645;28;20436;-70
2023/09/14 11:03:00;;;;;;;1999.90;999.90;;;19.00;99.90;;;;;;5047136;28;20433;-70
2023/09/14 11:05:40;;;;;;;1999.90;999.90;;;19.20;99.90;;;;;;5049598;28;20424;-71
2023/09/14 11:08:07;;;;;;;1999.90;999.90;;;19.20;99.90;;;;;;5046967;28;20437;-72
2023/09/14 11:10:37;;;;;;;1999.90;999.90;;;19.20;99.90;;;;;;5050536;28;20430;-73
2023/09/14 11:13:30;;;;;;;1999.90;999.90;;;19.00;99.90;;;;;;5048291;28;20429;-73
2023/09/14 11:16:05;;;;;;;1999.90;999.90;;;18.90;99.90;;;;;;5048057;28;20457;-72
2023/09/14 11:18:37;;;;;;;1999.90;999.90;;;18.80;99.90;;;;;;5045290;28;20487;-72
2023/09/14 11:21:04;;;;;;;1999.90;999.90;;;18.80;99.90;;;;;;5047404;28;20429;-73
2023/09/14 11:23:36;;;;;;;1999.90;999.90;;;19.00;99.90;;;;;;5050247;28;20463;-73
2023/09/14 11:26:05;;;;;;;1999.90;999.90;;;19.00;99.90;;;;;;5051188;28;20416;-72
2023/09/14 11:28:33;;;;;;;1999.90;999.90;;;19.10;99.90;;;;;;5051163;28;20895;-73
2023/09/14 11:31:02;;;;;;;1999.90;999.90;;;19.40;99.90;;;;;;5050151;28;20410;-69
2023/09/14 11:33:32;;;;;;;1999.90;999.90;;;19.70;99.90;;;;;;5050535;28;20419;-71
2023/09/14 11:36:01;;;;;;;1999.90;999.90;;;19.80;99.90;;;;;;5051601;28;20414;-70
2023/09/14 11:38:28;;;;;;;1999.90;999.90;;;19.80;99.90;;;;;;5048067;28;20517;-71
2023/09/14 11:40:54;;;;;;;1999.90;999.90;;;19.90;99.90;;;;;;5043116;28;20507;-72
2023/09/14 11:43:25;;;;;;;1999.90;999.90;;;19.50;99.90;;;;;;5045798;28;20432;-71
2023/09/14 11:45:56;;;;;;;1999.90;999.90;;;19.50;99.90;;;;;;5049001;28;20429;-71
2023/09/14 11:48:23;;;;;;;1999.90;999.90;;;19.30;99.90;;;;;;5047231;28;20449;-71
2023/09/14 11:50:52;;;;;;;1999.90;999.90;;;19.30;99.90;;;;;;5049296;28;20433;-70
2023/09/14 11:53:22;;;;;;;1999.90;999.90;;;19.40;99.90;;;;;;5048841;28;20437;-71
2023/09/14 11:55:49;;;;;;;1999.90;999.90;;;19.50;99.90;;;;;;5048509;28;21110;-73
2023/09/14 11:58:17;;;;;;;1999.90;999.90;;;19.70;99.90;;;;;;5048874;28;20433;-73
2023/09/14 12:00:48;;;;;;;1999.90;999.90;;;19.50;99.90;;;;;;5042029;28;20490;-71